sensor_id;sensor_type;location;lat;lon;timestamp;temperature;humidity
43227;DHT22;28839;52.404;9.808;2023-02-22T00:00:20;8.70;99.90
43227;DHT22;28839;52.404;9.808;2023-02-22T00:07:19;8.60;99.90
43227;DHT22;28839;52.404;9.808;2023-02-22T00:14:15;8.50;99.90
43227;DHT22;28839;52.404;9.808;2023-02-22T00:21:14;8.40;99.90
43227;DHT22;28839;52.404;9.808;2023-02-22T00:28:07;8.30;99.90
43227;DHT22;28839;52.404;9.808;2023-02-22T00:35:01;8.20;99.90
43227;DHT22;28839;52.404;9.808;2023-02-22T00:42:01;8.10;99.90
43227;DHT22;28839;52.404;9.808;2023-02-22T00:48:55;8.10;99.90
43227;DHT22;28839;52.404;9.808;2023-02-22T00:55:49;8.10;99.90
43227;DHT22;28839;52.404;9.808;2023-02-22T01:02:45;8.10;99.90
43227;DHT22;28839;52.404;9.808;2023-02-22T01:09:42;7.90;99.90
43227;DHT22;28839;52.404;9.808;2023-02-22T01:16:36;7.70;99.90
43227;DHT22;28839;52.404;9.808;2023-02-22T01:23:31;7.60;99.90
43227;DHT22;28839;52.404;9.808;2023-02-22T01:30:27;7.60;99.90
43227;DHT22;28839;52.404;9.808;2023-02-22T01:37:21;7.30;99.90
43227;DHT22;28839;52.404;9.808;2023-02-22T01:44:19;7.10;99.90
43227;DHT22;28839;52.404;9.808;2023-02-22T01:51:16;6.80;99.90
43227;DHT22;28839;52.404;9.808;2023-02-22T01:58:11;6.60;99.90
43227;DHT22;28839;52.404;9.808;2023-02-22T02:05:08;6.50;99.90
43227;DHT22;28839;52.404;9.808;2023-02-22T02:12:03;6.40;99.90
43227;DHT22;28839;52.404;9.808;2023-02-22T02:18:57;6.10;99.90
43227;DHT22;28839;52.404;9.808;2023-02-22T02:26:09;6.00;99.90
43227;DHT22;28839;52.404;9.808;2023-02-22T02:33:14;5.80;99.90
43227;DHT22;28839;52.404;9.808;2023-02-22T02:40:18;5.70;99.90
43227;DHT22;28839;52.404;9.808;2023-02-22T02:47:18;5.60;99.90
43227;DHT22;28839;52.404;9.808;2023-02-22T02:54:15;5.60;99.90
43227;DHT22;28839;52.404;9.808;2023-02-22T03:01:10;5.50;99.90
43227;DHT22;28839;52.404;9.808;2023-02-22T03:08:11;5.40;99.90
43227;DHT22;28839;52.404;9.808;2023-02-22T03:15:18;5.20;99.90
43227;DHT22;28839;52.404;9.808;2023-02-22T03:22:17;5.10;99.90
43227;DHT22;28839;52.404;9.808;2023-02-22T03:29:13;5.00;99.90
43227;DHT22;28839;52.404;9.808;2023-02-22T03:36:14;4.80;99.90
43227;DHT22;28839;52.404;9.808;2023-02-22T03:43:13;5.00;99.90
43227;DHT22;28839;52.404;9.808;2023-02-22T03:50:11;5.10;99.90
43227;DHT22;28839;52.404;9.808;2023-02-22T03:57:13;5.10;99.90
43227;DHT22;28839;52.404;9.808;2023-02-22T04:04:08;4.90;99.90
43227;DHT22;28839;52.404;9.808;2023-02-22T04:11:02;4.80;99.90
43227;DHT22;28839;52.404;9.808;2023-02-22T04:17:57;4.80;99.90
43227;DHT22;28839;52.404;9.808;2023-02-22T04:24:51;4.60;99.90
43227;DHT22;28839;52.404;9.808;2023-02-22T04:31:45;4.60;99.90
43227;DHT22;28839;52.404;9.808;2023-02-22T04:38:40;4.70;99.90
43227;DHT22;28839;52.404;9.808;2023-02-22T04:45:34;4.80;99.90
43227;DHT22;28839;52.404;9.808;2023-02-22T04:52:28;5.00;99.90
43227;DHT22;28839;52.404;9.808;2023-02-22T04:59:23;4.80;99.90
43227;DHT22;28839;52.404;9.808;2023-02-22T05:06:17;4.70;99.90
43227;DHT22;28839;52.404;9.808;2023-02-22T05:13:11;4.70;99.90
43227;DHT22;28839;52.404;9.808;2023-02-22T05:20:09;4.90;99.90
43227;DHT22;28839;52.404;9.808;2023-02-22T05:27:04;4.90;99.90
43227;DHT22;28839;52.404;9.808;2023-02-22T05:33:58;5.00;99.90
43227;DHT22;28839;52.404;9.808;2023-02-22T05:40:53;5.10;99.90
43227;DHT22;28839;52.404;9.808;2023-02-22T05:47:48;5.10;99.90
43227;DHT22;28839;52.404;9.808;2023-02-22T05:54:42;5.20;99.90
43227;DHT22;28839;52.404;9.808;2023-02-22T06:01:38;5.20;99.90
43227;DHT22;28839;52.404;9.808;2023-02-22T06:08:32;5.20;99.90
43227;DHT22;28839;52.404;9.808;2023-02-22T06:15:26;5.20;99.90
43227;DHT22;28839;52.404;9.808;2023-02-22T06:22:22;5.30;99.90
43227;DHT22;28839;52.404;9.808;2023-02-22T06:29:16;5.20;99.90
43227;DHT22;28839;52.404;9.808;2023-02-22T06:36:09;5.30;99.90
43227;DHT22;28839;52.404;9.808;2023-02-22T06:43:05;5.30;99.90
43227;DHT22;28839;52.404;9.808;2023-02-22T06:49:59;5.20;99.90
43227;DHT22;28839;52.404;9.808;2023-02-22T06:56:53;5.20;99.90
43227;DHT22;28839;52.404;9.808;2023-02-22T07:03:49;5.40;99.90
43227;DHT22;28839;52.404;9.808;2023-02-22T07:10:43;5.50;99.90
43227;DHT22;28839;52.404;9.808;2023-02-22T07:17:37;5.70;99.90
43227;DHT22;28839;52.404;9.808;2023-02-22T07:24:34;5.70;99.90
43227;DHT22;28839;52.404;9.808;2023-02-22T07:31:27;5.90;99.90
43227;DHT22;28839;52.404;9.808;2023-02-22T07:38:21;6.20;99.90
43227;DHT22;28839;52.404;9.808;2023-02-22T07:45:17;6.30;99.90
43227;DHT22;28839;52.404;9.808;2023-02-22T07:52:11;6.50;99.90
43227;DHT22;28839;52.404;9.808;2023-02-22T07:59:05;6.70;99.90
43227;DHT22;28839;52.404;9.808;2023-02-22T08:06:02;6.80;99.90
43227;DHT22;28839;52.404;9.808;2023-02-22T08:12:57;7.10;99.90
43227;DHT22;28839;52.404;9.808;2023-02-22T08:19:51;7.30;99.90
43227;DHT22;28839;52.404;9.808;2023-02-22T08:26:46;7.70;99.90
43227;DHT22;28839;52.404;9.808;2023-02-22T08:33:40;7.80;99.90
43227;DHT22;28839;52.404;9.808;2023-02-22T08:40:35;7.90;99.90
43227;DHT22;28839;52.404;9.808;2023-02-22T08:47:32;8.30;99.90
43227;DHT22;28839;52.404;9.808;2023-02-22T08:54:25;8.50;99.90
43227;DHT22;28839;52.404;9.808;2023-02-22T09:01:19;8.80;99.90
43227;DHT22;28839;52.404;9.808;2023-02-22T09:08:16;8.90;99.90
43227;DHT22;28839;52.404;9.808;2023-02-22T09:15:13;9.10;99.90
43227;DHT22;28839;52.404;9.808;2023-02-22T09:22:07;9.40;99.90
43227;DHT22;28839;52.404;9.808;2023-02-22T09:29:02;9.50;99.90
43227;DHT22;28839;52.404;9.808;2023-02-22T09:35:56;9.60;99.90
43227;DHT22;28839;52.404;9.808;2023-02-22T09:43:05;9.80;99.90
43227;DHT22;28839;52.404;9.808;2023-02-22T09:50:05;10.20;99.90
43227;DHT22;28839;52.404;9.808;2023-02-22T09:57:09;10.50;99.90
43227;DHT22;28839;52.404;9.808;2023-02-22T10:04:09;10.50;99.90
43227;DHT22;28839;52.404;9.808;2023-02-22T10:11:14;10.60;99.90
43227;DHT22;28839;52.404;9.808;2023-02-22T10:18:37;10.60;99.90
43227;DHT22;28839;52.404;9.808;2023-02-22T10:25:37;10.90;99.90
43227;DHT22;28839;52.404;9.808;2023-02-22T10:32:40;11.20;99.90
43227;DHT22;28839;52.404;9.808;2023-02-22T10:39:37;11.30;99.90
43227;DHT22;28839;52.404;9.808;2023-02-22T10:46:32;11.40;99.90
43227;DHT22;28839;52.404;9.808;2023-02-22T10:53:29;11.50;99.90
43227;DHT22;28839;52.404;9.808;2023-02-22T11:00:28;11.60;99.90
43227;DHT22;28839;52.404;9.808;2023-02-22T11:07:27;11.80;99.90
43227;DHT22;28839;52.404;9.808;2023-02-22T11:14:27;12.00;99.90
43227;DHT22;28839;52.404;9.808;2023-02-22T11:21:22;12.20;99.90
43227;DHT22;28839;52.404;9.808;2023-02-22T11:28:19;12.00;99.90
43227;DHT22;28839;52.404;9.808;2023-02-22T11:35:36;12.20;99.90
43227;DHT22;28839;52.404;9.808;2023-02-22T11:42:32;12.40;99.90
43227;DHT22;28839;52.404;9.808;2023-02-22T11:49:32;12.30;99.90
43227;DHT22;28839;52.404;9.808;2023-02-22T11:56:33;12.40;99.90
43227;DHT22;28839;52.404;9.808;2023-02-22T12:03:43;12.30;99.90
43227;DHT22;28839;52.404;9.808;2023-02-22T12:10:53;12.30;99.90
43227;DHT22;28839;52.404;9.808;2023-02-22T12:17:59;12.60;99.90
43227;DHT22;28839;52.404;9.808;2023-02-22T12:24:56;12.70;99.90
43227;DHT22;28839;52.404;9.808;2023-02-22T12:31:55;12.90;99.90
43227;DHT22;28839;52.404;9.808;2023-02-22T12:38:57;12.90;99.90
43227;DHT22;28839;52.404;9.808;2023-02-22T12:46:01;13.00;99.90
43227;DHT22;28839;52.404;9.808;2023-02-22T12:53:00;13.00;99.90
43227;DHT22;28839;52.404;9.808;2023-02-22T13:00:02;13.20;99.90
43227;DHT22;28839;52.404;9.808;2023-02-22T13:14:26;13.10;99.90
43227;DHT22;28839;52.404;9.808;2023-02-22T13:21:29;13.30;99.90
43227;DHT22;28839;52.404;9.808;2023-02-22T13:28:30;13.50;99.90
43227;DHT22;28839;52.404;9.808;2023-02-22T13:35:39;13.40;99.90
43227;DHT22;28839;52.404;9.808;2023-02-22T13:50:17;13.60;99.90
43227;DHT22;28839;52.404;9.808;2023-02-22T13:57:20;13.50;99.90
43227;DHT22;28839;52.404;9.808;2023-02-22T14:04:22;13.50;99.90
43227;DHT22;28839;52.404;9.808;2023-02-22T14:11:49;13.50;99.90
43227;DHT22;28839;52.404;9.808;2023-02-22T14:18:59;13.60;99.90
43227;DHT22;28839;52.404;9.808;2023-02-22T14:25:56;13.50;99.90
43227;DHT22;28839;52.404;9.808;2023-02-22T14:33:02;13.40;99.90
43227;DHT22;28839;52.404;9.808;2023-02-22T14:39:58;13.50;99.90
43227;DHT22;28839;52.404;9.808;2023-02-22T14:47:08;13.50;99.90
43227;DHT22;28839;52.404;9.808;2023-02-22T14:54:07;13.50;99.90
43227;DHT22;28839;52.404;9.808;2023-02-22T15:01:23;13.50;99.90
43227;DHT22;28839;52.404;9.808;2023-02-22T15:08:19;13.50;99.90
43227;DHT22;28839;52.404;9.808;2023-02-22T15:15:24;13.70;99.90
43227;DHT22;28839;52.404;9.808;2023-02-22T15:22:20;13.50;99.90
43227;DHT22;28839;52.404;9.808;2023-02-22T15:29:18;13.50;99.90
43227;DHT22;28839;52.404;9.808;2023-02-22T15:36:15;13.40;99.90
43227;DHT22;28839;52.404;9.808;2023-02-22T15:43:17;13.40;99.90
43227;DHT22;28839;52.404;9.808;2023-02-22T15:50:22;13.40;99.90
43227;DHT22;28839;52.404;9.808;2023-02-22T15:57:20;13.30;99.90
43227;DHT22;28839;52.404;9.808;2023-02-22T16:04:16;13.20;99.90
43227;DHT22;28839;52.404;9.808;2023-02-22T16:11:15;13.00;99.90
43227;DHT22;28839;52.404;9.808;2023-02-22T16:18:24;12.60;99.90
43227;DHT22;28839;52.404;9.808;2023-02-22T16:25:24;12.60;99.90
43227;DHT22;28839;52.404;9.808;2023-02-22T16:32:21;12.30;99.90
43227;DHT22;28839;52.404;9.808;2023-02-22T16:39:21;12.20;99.90
43227;DHT22;28839;52.404;9.808;2023-02-22T16:46:16;11.90;99.90
43227;DHT22;28839;52.404;9.808;2023-02-22T16:53:12;11.70;99.90
43227;DHT22;28839;52.404;9.808;2023-02-22T17:00:10;11.50;99.90
43227;DHT22;28839;52.404;9.808;2023-02-22T17:07:04;11.40;99.90
43227;DHT22;28839;52.404;9.808;2023-02-22T17:14:02;11.30;99.90
43227;DHT22;28839;52.404;9.808;2023-02-22T17:20:56;11.30;99.90
43227;DHT22;28839;52.404;9.808;2023-02-22T17:27:50;11.30;99.90
43227;DHT22;28839;52.404;9.808;2023-02-22T17:34:45;11.20;99.90
43227;DHT22;28839;52.404;9.808;2023-02-22T17:41:39;11.20;99.90
43227;DHT22;28839;52.404;9.808;2023-02-22T17:48:33;11.10;99.90
43227;DHT22;28839;52.404;9.808;2023-02-22T17:55:28;11.00;99.90
43227;DHT22;28839;52.404;9.808;2023-02-22T18:02:22;10.90;99.90
43227;DHT22;28839;52.404;9.808;2023-02-22T18:09:16;10.80;99.90
43227;DHT22;28839;52.404;9.808;2023-02-22T18:16:13;10.70;99.90
43227;DHT22;28839;52.404;9.808;2023-02-22T18:23:09;10.60;99.90
43227;DHT22;28839;52.404;9.808;2023-02-22T18:30:05;10.60;99.90
43227;DHT22;28839;52.404;9.808;2023-02-22T18:37:00;10.30;99.90
43227;DHT22;28839;52.404;9.808;2023-02-22T18:43:57;10.00;99.90
43227;DHT22;28839;52.404;9.808;2023-02-22T18:50:51;10.00;99.90
43227;DHT22;28839;52.404;9.808;2023-02-22T18:57:48;9.70;99.90
43227;DHT22;28839;52.404;9.808;2023-02-22T19:04:43;9.90;99.90
43227;DHT22;28839;52.404;9.808;2023-02-22T19:11:37;9.70;99.90
43227;DHT22;28839;52.404;9.808;2023-02-22T19:18:37;9.80;99.90
43227;DHT22;28839;52.404;9.808;2023-02-22T19:25:31;9.70;99.90
43227;DHT22;28839;52.404;9.808;2023-02-22T19:32:25;9.60;99.90
43227;DHT22;28839;52.404;9.808;2023-02-22T19:39:20;9.50;99.90
43227;DHT22;28839;52.404;9.808;2023-02-22T19:46:16;9.20;99.90
43227;DHT22;28839;52.404;9.808;2023-02-22T19:53:12;9.10;99.90
43227;DHT22;28839;52.404;9.808;2023-02-22T20:00:09;9.00;99.90
43227;DHT22;28839;52.404;9.808;2023-02-22T20:07:03;8.90;99.90
43227;DHT22;28839;52.404;9.808;2023-02-22T20:13:57;9.00;99.90
43227;DHT22;28839;52.404;9.808;2023-02-22T20:20:53;8.90;99.90
43227;DHT22;28839;52.404;9.808;2023-02-22T20:27:47;8.90;99.90
43227;DHT22;28839;52.404;9.808;2023-02-22T20:34:44;8.80;99.90
43227;DHT22;28839;52.404;9.808;2023-02-22T20:41:41;8.70;99.90
43227;DHT22;28839;52.404;9.808;2023-02-22T20:48:35;8.50;99.90
43227;DHT22;28839;52.404;9.808;2023-02-22T20:55:29;8.50;99.90
43227;DHT22;28839;52.404;9.808;2023-02-22T21:02:24;8.20;99.90
43227;DHT22;28839;52.404;9.808;2023-02-22T21:09:20;8.40;99.90
43227;DHT22;28839;52.404;9.808;2023-02-22T21:16:17;8.30;99.90
43227;DHT22;28839;52.404;9.808;2023-02-22T21:23:13;8.30;99.90
43227;DHT22;28839;52.404;9.808;2023-02-22T21:30:09;8.20;99.90
43227;DHT22;28839;52.404;9.808;2023-02-22T21:37:03;8.10;99.90
43227;DHT22;28839;52.404;9.808;2023-02-22T21:44:00;8.00;99.90
43227;DHT22;28839;52.404;9.808;2023-02-22T21:50:54;7.90;99.90
43227;DHT22;28839;52.404;9.808;2023-02-22T21:57:48;7.90;99.90
43227;DHT22;28839;52.404;9.808;2023-02-22T22:04:43;7.80;99.90
43227;DHT22;28839;52.404;9.808;2023-02-22T22:11:37;7.70;99.90
43227;DHT22;28839;52.404;9.808;2023-02-22T22:18:31;7.60;99.90
43227;DHT22;28839;52.404;9.808;2023-02-22T22:25:26;7.50;99.90
43227;DHT22;28839;52.404;9.808;2023-02-22T22:32:21;7.40;99.90
43227;DHT22;28839;52.404;9.808;2023-02-22T22:39:15;7.30;99.90
43227;DHT22;28839;52.404;9.808;2023-02-22T22:46:15;7.30;99.90
43227;DHT22;28839;52.404;9.808;2023-02-22T22:53:09;7.20;99.90
43227;DHT22;28839;52.404;9.808;2023-02-22T23:00:04;7.00;99.90
43227;DHT22;28839;52.404;9.808;2023-02-22T23:07:19;6.90;99.90
43227;DHT22;28839;52.404;9.808;2023-02-22T23:14:14;6.90;99.90
43227;DHT22;28839;52.404;9.808;2023-02-22T23:21:10;7.00;99.90
43227;DHT22;28839;52.404;9.808;2023-02-22T23:28:06;6.80;99.90
43227;DHT22;28839;52.404;9.808;2023-02-22T23:35:07;6.70;99.90
43227;DHT22;28839;52.404;9.808;2023-02-22T23:42:03;6.50;99.90
43227;DHT22;28839;52.404;9.808;2023-02-22T23:49:01;6.50;99.90
43227;DHT22;28839;52.404;9.808;2023-02-22T23:55:55;6.40;99.90
